createdAt,value
2023-04-04T00:00:35.251Z,101130.47
2023-04-04T00:06:49.300Z,101133.19
2023-04-04T00:09:19.444Z,101135.94
2023-04-04T00:11:46.303Z,101137.06
2023-04-04T00:14:13.041Z,101129.91
2023-04-04T00:16:39.855Z,101134.28
2023-04-04T00:19:06.322Z,101133.75
2023-04-04T00:21:32.653Z,101126.00
2023-04-04T00:23:59.516Z,101124.34
2023-04-04T00:26:28.866Z,101119.09
2023-04-04T00:28:56.174Z,101119.66
2023-04-04T00:31:23.117Z,101118.03
2023-04-04T00:33:49.565Z,101111.16
2023-04-04T00:36:16.202Z,101110.00
2023-04-04T00:38:42.645Z,101115.81
2023-04-04T00:41:09.100Z,101113.63
2023-04-04T00:43:35.678Z,101117.09
2023-04-04T00:46:02.235Z,101116.28
2023-04-04T00:48:28.749Z,101105.06
2023-04-04T00:50:55.386Z,101106.09
2023-04-04T00:53:22.172Z,101111.84
2023-04-04T00:55:48.889Z,101105.06
2023-04-04T00:58:15.503Z,101109.94
2023-04-04T01:00:42.271Z,101107.50
2023-04-04T01:03:10.365Z,101104.22
2023-04-04T01:05:36.961Z,101107.78
2023-04-04T01:08:03.558Z,101107.50
2023-04-04T01:10:30.684Z,101105.53
2023-04-04T01:12:57.598Z,101096.75
2023-04-04T01:15:24.158Z,101097.88
2023-04-04T01:17:53.135Z,101095.66
2023-04-04T01:20:24.764Z,101101.16
2023-04-04T01:22:52.063Z,101097.28
2023-04-04T01:25:19.613Z,101099.16
2023-04-04T01:27:46.403Z,101099.44
2023-04-04T01:30:14.163Z,101089.78
2023-04-04T01:32:47.255Z,101094.44
2023-04-04T01:35:38.398Z,101090.31
2023-04-04T01:38:17.550Z,101085.03
2023-04-04T01:40:52.755Z,101089.47
2023-04-04T01:43:19.422Z,101090.31
2023-04-04T01:45:46.267Z,101088.13
2023-04-04T01:48:12.964Z,101088.88
2023-04-04T01:50:39.705Z,101083.66
2023-04-04T01:53:06.842Z,101082.84
2023-04-04T01:55:33.483Z,101076.31
2023-04-04T01:58:01.005Z,101080.09
2023-04-04T02:00:27.673Z,101072.94
2023-04-04T02:02:54.633Z,101071.09
2023-04-04T02:05:21.295Z,101064.38
2023-04-04T02:07:51.354Z,101063.53
2023-04-04T02:10:18.371Z,101065.09
2023-04-04T02:12:45.692Z,101076.03
2023-04-04T02:15:12.207Z,101061.00
2023-04-04T02:17:39.877Z,101071.94
2023-04-04T02:20:10.602Z,101068.34
2023-04-04T02:22:37.217Z,101062.00
2023-04-04T02:25:04.229Z,101065.56
2023-04-04T02:27:30.842Z,101067.63
2023-04-04T02:29:57.445Z,101057.47
2023-04-04T02:32:24.393Z,101060.44
2023-04-04T02:34:51.228Z,101062.34
2023-04-04T02:37:17.939Z,101063.09
2023-04-04T02:39:44.590Z,101065.88
2023-04-04T02:42:11.372Z,101061.63
2023-04-04T02:44:37.821Z,101056.91
2023-04-04T02:47:05.919Z,101055.22
2023-04-04T02:49:32.508Z,101052.34
2023-04-04T02:51:58.906Z,101048.53
2023-04-04T02:54:25.576Z,101050.69
2023-04-04T02:56:52.544Z,101051.84
2023-04-04T02:59:19.213Z,101048.13
2023-04-04T03:01:46.013Z,101055.00
2023-04-04T03:04:13.772Z,101052.78
2023-04-04T03:06:41.311Z,101048.34
2023-04-04T03:09:08.072Z,101051.34
2023-04-04T03:11:34.481Z,101062.50
2023-04-04T03:14:01.081Z,101055.94
2023-04-04T03:16:29.542Z,101061.16
2023-04-04T03:18:56.337Z,101059.09
2023-04-04T03:21:22.922Z,101056.34
2023-04-04T03:23:49.353Z,101053.59
2023-04-04T03:26:15.867Z,101057.47
2023-04-04T03:28:42.294Z,101058.03
2023-04-04T03:31:08.730Z,101049.34
2023-04-04T03:33:38.599Z,101058.41
2023-04-04T03:36:12.915Z,101053.50
2023-04-04T03:38:40.185Z,101052.13
2023-04-04T03:41:07.372Z,101049.00
2023-04-04T03:43:34.026Z,101048.22
2023-04-04T03:46:02.073Z,101047.66
2023-04-04T03:48:29.392Z,101052.56
2023-04-04T03:50:59.323Z,101047.94
2023-04-04T03:53:28.696Z,101047.16
2023-04-04T03:55:56.893Z,101040.31
2023-04-04T03:58:23.888Z,101043.94
2023-04-04T04:00:50.248Z,101049.91
2023-04-04T04:03:17.430Z,101042.81
2023-04-04T04:05:43.934Z,101036.56
2023-04-04T04:08:10.766Z,101042.28
2023-04-04T04:10:37.277Z,101042.63
2023-04-04T04:13:05.047Z,101049.41
2023-04-04T04:15:31.472Z,101044.53
2023-04-04T04:17:57.985Z,101045.09
2023-04-04T04:20:24.459Z,101044.53
2023-04-04T04:22:53.300Z,101047.81
2023-04-04T04:25:20.434Z,101055.44
2023-04-04T04:27:46.898Z,101048.81
2023-04-04T04:30:13.723Z,101050.53
2023-04-04T04:32:40.832Z,101050.50
2023-04-04T04:35:08.249Z,101055.47
2023-04-04T04:37:34.772Z,101054.63
2023-04-04T04:40:01.932Z,101054.41
2023-04-04T04:42:29.362Z,101054.69
2023-04-04T04:44:56.047Z,101063.78
2023-04-04T04:47:22.779Z,101044.72
2023-04-04T04:49:52.367Z,101051.25
2023-04-04T04:52:19.299Z,101050.25
2023-04-04T04:54:45.908Z,101051.59
2023-04-04T04:57:12.488Z,101052.13
2023-04-04T04:59:41.186Z,101055.19
2023-04-04T05:02:08.244Z,101056.34
2023-04-04T05:04:34.878Z,101057.75
2023-04-04T05:07:01.755Z,101059.44
2023-04-04T05:09:28.135Z,101063.03
2023-04-04T05:11:54.613Z,101065.09
2023-04-04T05:14:20.991Z,101062.13
2023-04-04T05:16:49.009Z,101071.75
2023-04-04T05:19:15.659Z,101069.78
2023-04-04T05:21:42.159Z,101075.91
2023-04-04T05:24:08.720Z,101073.50
2023-04-04T05:26:35.435Z,101075.66
2023-04-04T05:29:02.131Z,101075.97
2023-04-04T05:31:28.762Z,101076.81
2023-04-04T05:33:56.263Z,101081.97
2023-04-04T05:36:23.415Z,101087.50
2023-04-04T05:38:50.021Z,101088.69
2023-04-04T05:41:16.510Z,101081.31
2023-04-04T05:43:42.958Z,101087.59
2023-04-04T05:46:09.860Z,101092.34
2023-04-04T05:48:36.491Z,101082.94
2023-04-04T05:51:03.304Z,101094.88
2023-04-04T05:53:30.240Z,101101.16
2023-04-04T05:55:58.577Z,101095.13
2023-04-04T05:58:24.996Z,101087.97
2023-04-04T06:00:51.607Z,101092.94
2023-04-04T06:03:20.384Z,101093.72
2023-04-04T06:05:52.711Z,101099.25
2023-04-04T06:08:19.843Z,101090.44
2023-04-04T06:10:46.633Z,101095.66
2023-04-04T06:13:13.678Z,101092.59
2023-04-04T06:15:40.351Z,101098.72
2023-04-04T06:18:07.251Z,101095.41
2023-04-04T06:20:33.797Z,101087.50
2023-04-04T06:23:03.922Z,101084.81
2023-04-04T06:25:31.490Z,101093.00
2023-04-04T06:27:59.367Z,101089.91
2023-04-04T06:30:25.942Z,101087.84
2023-04-04T06:32:53.012Z,101084.53
2023-04-04T06:35:20.681Z,101089.91
2023-04-04T06:37:48.374Z,101079.63
2023-04-04T06:40:15.745Z,101082.22
2023-04-04T06:42:50.482Z,101073.13
2023-04-04T06:45:17.919Z,101080.22
2023-04-04T06:47:45.039Z,101085.28
2023-04-04T06:50:11.827Z,101081.72
2023-04-04T06:52:39.660Z,101081.19
2023-04-04T06:55:08.457Z,101092.25
2023-04-04T06:57:35.038Z,101082.78
2023-04-04T07:00:02.437Z,101083.69
2023-04-04T07:02:29.850Z,101080.34
2023-04-04T07:04:56.803Z,101073.03
2023-04-04T07:07:24.589Z,101083.50
2023-04-04T07:09:51.364Z,101079.22
2023-04-04T07:12:17.760Z,101072.91
2023-04-04T07:14:44.162Z,101093.84
2023-04-04T07:17:21.367Z,101068.47
2023-04-04T07:19:50.475Z,101074.53
2023-04-04T07:22:17.994Z,101071.84
2023-04-04T07:24:44.946Z,101071.81
2023-04-04T07:27:11.603Z,101073.06
2023-04-04T07:29:38.062Z,101075.47
2023-04-04T07:32:04.774Z,101076.31
2023-04-04T07:34:31.323Z,101078.50
2023-04-04T07:36:57.741Z,101076.66
2023-04-04T07:39:24.144Z,101085.50
2023-04-04T07:41:50.533Z,101083.41
2023-04-04T07:44:17.001Z,101077.69
2023-04-04T07:46:44.054Z,101079.72
2023-04-04T07:49:12.686Z,101082.16
2023-04-04T07:51:39.928Z,101092.91
2023-04-04T07:54:06.694Z,101077.25
2023-04-04T07:56:33.150Z,101078.44
2023-04-04T07:58:59.674Z,101087.78
2023-04-04T08:01:26.982Z,101091.44
2023-04-04T08:03:53.702Z,101086.34
2023-04-04T08:06:20.723Z,101073.31
2023-04-04T08:08:48.208Z,101079.78
2023-04-04T08:11:14.680Z,101077.44
2023-04-04T08:13:41.670Z,101078.84
2023-04-04T08:16:08.487Z,101070.94
2023-04-04T08:18:34.911Z,101082.28
2023-04-04T08:21:01.328Z,101064.06
2023-04-04T08:23:29.732Z,101069.22
2023-04-04T08:25:57.750Z,101059.31
2023-04-04T08:28:24.228Z,101073.88
2023-04-04T08:30:53.818Z,101066.50
2023-04-04T08:33:21.713Z,101060.97
2023-04-04T08:35:48.220Z,101060.28
2023-04-04T08:38:14.609Z,101065.97
2023-04-04T08:40:41.265Z,101062.16
2023-04-04T08:43:08.262Z,101063.31
2023-04-04T08:45:34.962Z,101062.41
2023-04-04T08:48:03.777Z,101046.63
2023-04-04T08:50:30.514Z,101054.56
2023-04-04T08:52:59.250Z,101063.09
2023-04-04T08:55:25.963Z,101045.44
2023-04-04T08:57:52.643Z,101059.06
2023-04-04T09:00:21.491Z,101048.09
2023-04-04T09:03:14.965Z,101049.56
2023-04-04T09:05:43.763Z,101037.66
2023-04-04T09:08:12.414Z,101048.31
2023-04-04T09:10:43.910Z,101067.59
2023-04-04T09:13:16.063Z,101046.69
2023-04-04T09:15:51.698Z,101046.94
2023-04-04T09:18:18.305Z,101052.44
2023-04-04T09:20:48.703Z,101045.31
2023-04-04T09:23:18.439Z,101039.66
2023-04-04T09:28:20.006Z,101043.09
2023-04-04T09:30:51.160Z,101044.69
2023-04-04T09:33:19.497Z,101052.38
2023-04-04T09:35:52.549Z,101046.41
2023-04-04T09:38:24.071Z,101044.06
2023-04-04T09:40:52.634Z,101038.25
2023-04-04T09:43:22.123Z,101053.13
2023-04-04T09:45:49.277Z,101040.31
2023-04-04T09:48:27.345Z,101047.34
2023-04-04T09:50:53.754Z,101043.22
2023-04-04T09:53:20.616Z,101048.97
2023-04-04T09:55:54.802Z,101051.81
2023-04-04T09:58:28.812Z,101055.06
2023-04-04T10:00:58.442Z,101044.66
2023-04-04T10:03:27.916Z,101032.06
2023-04-04T10:06:06.733Z,101035.91
2023-04-04T10:08:34.553Z,101032.38
2023-04-04T10:11:11.445Z,101040.66
2023-04-04T10:13:44.518Z,101045.50
2023-04-04T10:16:11.896Z,101035.53
2023-04-04T10:18:39.256Z,101028.31
2023-04-04T10:23:38.893Z,101037.66
2023-04-04T10:26:06.037Z,101038.66
2023-04-04T10:28:32.690Z,101036.78
2023-04-04T10:31:25.112Z,101044.97
2023-04-04T10:34:00.644Z,101037.28
2023-04-04T10:36:32.572Z,101033.66
2023-04-04T10:39:13.999Z,101038.72
2023-04-04T10:41:40.708Z,101029.16
2023-04-04T10:44:15.302Z,101031.94
2023-04-04T10:46:43.168Z,101015.44
2023-04-04T10:49:10.239Z,101016.38
2023-04-04T10:51:45.075Z,101008.19
2023-04-04T10:54:16.885Z,101009.19
2023-04-04T10:56:44.012Z,101006.09
2023-04-04T10:59:15.730Z,101000.22
2023-04-04T11:01:49.968Z,101010.03
2023-04-04T11:04:20.740Z,101006.41
2023-04-04T11:07:10.203Z,101005.69
2023-04-04T11:09:54.585Z,100999.53
2023-04-04T11:12:24.459Z,101006.53
2023-04-04T11:15:10.261Z,101008.97
2023-04-04T11:17:49.225Z,101002.59
2023-04-04T11:20:17.777Z,100993.50
2023-04-04T11:22:45.666Z,100980.69
2023-04-04T11:25:24.874Z,100979.03
2023-04-04T11:27:54.749Z,100984.97
2023-04-04T11:30:21.700Z,100996.84
2023-04-04T11:32:59.882Z,100987.50
2023-04-04T11:35:30.587Z,100987.69
2023-04-04T11:37:56.984Z,100977.09
2023-04-04T11:40:41.607Z,100965.41
2023-04-04T11:43:12.054Z,100958.72
2023-04-04T11:45:44.541Z,100961.47
2023-04-04T11:48:11.115Z,100959.03
2023-04-04T11:50:41.608Z,100957.03
2023-04-04T11:53:10.096Z,100960.88
2023-04-04T11:55:42.691Z,100959.50
2023-04-04T11:58:13.017Z,100956.34
2023-04-04T12:00:41.560Z,100965.66
2023-04-04T12:03:11.224Z,100956.56
2023-04-04T12:05:39.997Z,100958.59
2023-04-04T12:08:08.290Z,100953.72
2023-04-04T12:10:35.870Z,100947.72
2023-04-04T12:13:07.160Z,100949.69
2023-04-04T12:15:37.700Z,100937.63
2023-04-04T12:18:07.926Z,100942.81
2023-04-04T12:20:37.768Z,100935.19
2023-04-04T12:23:05.025Z,100939.53
2023-04-04T12:25:34.091Z,100937.34
2023-04-04T12:28:01.922Z,100952.19
2023-04-04T12:30:28.418Z,100939.31
2023-04-04T12:32:55.122Z,100945.81
2023-04-04T12:35:21.537Z,100925.84
2023-04-04T12:38:10.585Z,100920.34
2023-04-04T12:40:38.777Z,100911.09
2023-04-04T12:43:06.561Z,100921.47
2023-04-04T12:45:33.497Z,100928.78
2023-04-04T12:48:00.051Z,100926.22
2023-04-04T12:50:28.384Z,100924.97
2023-04-04T12:53:00.211Z,100916.88
2023-04-04T12:55:35.038Z,100922.75
2023-04-04T12:58:02.618Z,100915.63
2023-04-04T13:00:29.582Z,100905.50
2023-04-04T13:02:56.333Z,100902.84
2023-04-04T13:05:25.664Z,100914.53
2023-04-04T13:08:06.442Z,100898.53
2023-04-04T13:10:56.781Z,100911.63
2023-04-04T13:13:40.619Z,100897.97
2023-04-04T13:16:09.048Z,100898.84
2023-04-04T13:18:43.102Z,100898.66
2023-04-04T13:21:11.524Z,100899.28
2023-04-04T13:23:41.806Z,100891.63
2023-04-04T13:26:09.850Z,100886.56
2023-04-04T13:28:36.731Z,100890.88
2023-04-04T13:31:08.359Z,100890.97
2023-04-04T13:33:35.211Z,100878.88
2023-04-04T13:36:01.928Z,100876.41
2023-04-04T13:38:29.325Z,100875.81
2023-04-04T13:40:57.907Z,100871.88
2023-04-04T13:43:24.823Z,100872.94
2023-04-04T13:45:52.993Z,100865.56
2023-04-04T13:48:20.353Z,100877.06
2023-04-04T13:50:51.190Z,100869.69
2023-04-04T13:53:18.820Z,100857.16
2023-04-04T13:56:01.396Z,100859.38
2023-04-04T13:58:32.272Z,100850.78
2023-04-04T14:00:58.681Z,100842.56
2023-04-04T14:03:25.239Z,100845.47
2023-04-04T14:05:51.583Z,100844.34
2023-04-04T14:08:18.117Z,100834.75
2023-04-04T14:10:44.585Z,100836.09
2023-04-04T14:13:11.790Z,100845.94
2023-04-04T14:15:39.945Z,100844.34
2023-04-04T14:18:07.240Z,100845.47
2023-04-04T14:20:34.695Z,100844.94
2023-04-04T14:23:01.737Z,100843.38
2023-04-04T14:25:28.220Z,100843.25
2023-04-04T14:27:55.090Z,100842.63
2023-04-04T14:30:22.043Z,100831.34
2023-04-04T14:32:50.994Z,100835.28
2023-04-04T14:35:17.487Z,100835.59
2023-04-04T14:37:43.964Z,100839.25
2023-04-04T14:40:10.693Z,100841.88
2023-04-04T14:42:37.532Z,100840.34
2023-04-04T14:45:07.561Z,100835.63
2023-04-04T14:47:35.024Z,100831.38
2023-04-04T14:50:01.833Z,100829.88
2023-04-04T14:52:31.497Z,100833.16
2023-04-04T14:54:58.370Z,100829.94
2023-04-04T14:57:24.956Z,100828.41
2023-04-04T14:59:51.379Z,100828.00
2023-04-04T15:02:18.935Z,100832.16
2023-04-04T15:04:45.403Z,100827.94
2023-04-04T15:07:11.819Z,100824.06
2023-04-04T15:09:38.243Z,100825.75
2023-04-04T15:12:04.860Z,100826.75
2023-04-04T15:14:31.439Z,100823.34
2023-04-04T15:16:58.444Z,100825.88
2023-04-04T15:19:25.003Z,100815.66
2023-04-04T15:21:51.444Z,100810.78
2023-04-04T15:24:18.465Z,100809.91
2023-04-04T15:26:45.632Z,100812.00
2023-04-04T15:29:12.088Z,100811.44
2023-04-04T15:31:38.678Z,100809.59
2023-04-04T15:34:05.551Z,100815.53
2023-04-04T15:36:34.083Z,100819.75
2023-04-04T15:39:01.035Z,100818.31
2023-04-04T15:41:28.198Z,100811.75
2023-04-04T15:43:54.682Z,100812.69
2023-04-04T15:46:21.353Z,100814.09
2023-04-04T15:48:52.193Z,100817.38
2023-04-04T15:51:21.019Z,100814.31
2023-04-04T15:53:47.477Z,100813.75
2023-04-04T15:56:14.018Z,100807.63
2023-04-04T15:58:40.751Z,100818.25
2023-04-04T16:01:07.641Z,100809.44
2023-04-04T16:03:34.261Z,100804.94
2023-04-04T16:06:00.777Z,100803.59
2023-04-04T16:08:27.193Z,100807.28
2023-04-04T16:10:53.656Z,100805.00
2023-04-04T16:13:20.417Z,100804.41
2023-04-04T16:15:47.114Z,100796.69
2023-04-04T16:18:13.539Z,100801.63
2023-04-04T16:20:40.402Z,100793.13
2023-04-04T16:23:07.132Z,100797.09
2023-04-04T16:25:33.785Z,100794.25
2023-04-04T16:28:00.435Z,100798.53
2023-04-04T16:30:28.392Z,100793.59
2023-04-04T16:32:55.049Z,100792.41
2023-04-04T16:35:21.543Z,100788.34
2023-04-04T16:37:48.001Z,100801.66
2023-04-04T16:40:15.442Z,100801.25
2023-04-04T16:42:42.079Z,100790.19
2023-04-04T16:45:09.347Z,100792.50
2023-04-04T16:47:36.746Z,100793.75
2023-04-04T16:50:07.034Z,100796.00
2023-04-04T16:52:33.486Z,100791.78
2023-04-04T16:54:59.925Z,100804.09
2023-04-04T16:57:26.814Z,100800.34
2023-04-04T16:59:53.582Z,100800.03
2023-04-04T17:02:20.194Z,100798.13
2023-04-04T17:04:46.707Z,100796.94
2023-04-04T17:07:13.211Z,100788.13
2023-04-04T17:09:39.777Z,100787.59
2023-04-04T17:12:06.331Z,100794.09
2023-04-04T17:14:33.345Z,100788.19
2023-04-04T17:17:00.530Z,100786.19
2023-04-04T17:19:31.431Z,100787.78
2023-04-04T17:21:58.561Z,100794.50
2023-04-04T17:24:27.906Z,100798.03
2023-04-04T17:26:56.805Z,100795.44
2023-04-04T17:29:26.980Z,100799.03
2023-04-04T17:31:54.987Z,100800.25
2023-04-04T17:34:21.607Z,100795.34
2023-04-04T17:36:48.392Z,100798.81
2023-04-04T17:39:15.729Z,100793.19
2023-04-04T17:41:42.399Z,100800.97
2023-04-04T17:44:09.447Z,100798.72
2023-04-04T17:46:36.204Z,100792.97
2023-04-04T17:49:02.600Z,100791.97
2023-04-04T17:51:29.404Z,100796.38
2023-04-04T17:53:55.885Z,100792.16
2023-04-04T17:56:22.937Z,100806.00
2023-04-04T17:58:51.941Z,100797.69
2023-04-04T18:01:20.383Z,100797.78
2023-04-04T18:03:47.854Z,100799.88
2023-04-04T18:06:14.747Z,100802.72
2023-04-04T18:08:44.196Z,100802.41
2023-04-04T18:11:10.864Z,100795.25
2023-04-04T18:13:37.377Z,100802.47
2023-04-04T18:16:05.851Z,100801.34
2023-04-04T18:18:32.452Z,100801.19
2023-04-04T18:20:59.246Z,100795.84
2023-04-04T18:23:27.288Z,100799.09
2023-04-04T18:25:53.662Z,100807.25
2023-04-04T18:28:20.408Z,100804.53
2023-04-04T18:30:46.845Z,100798.91
2023-04-04T18:33:13.419Z,100800.44
2023-04-04T18:35:39.960Z,100801.84
2023-04-04T18:38:06.454Z,100801.63
2023-04-04T18:40:32.875Z,100801.88
2023-04-04T18:43:01.463Z,100800.81
2023-04-04T18:45:37.490Z,100806.03
2023-04-04T18:48:07.032Z,100802.63
2023-04-04T18:50:33.665Z,100809.13
2023-04-04T18:53:00.346Z,100805.13
2023-04-04T18:55:27.188Z,100810.94
2023-04-04T18:57:53.701Z,100817.81
2023-04-04T19:00:20.650Z,100817.06
2023-04-04T19:02:47.493Z,100818.09
2023-04-04T19:05:14.110Z,100813.69
2023-04-04T19:07:42.297Z,100813.19
2023-04-04T19:10:09.668Z,100809.72
2023-04-04T19:12:36.185Z,100813.53
2023-04-04T19:15:02.955Z,100812.81
2023-04-04T19:17:29.863Z,100809.00
2023-04-04T19:19:57.622Z,100806.56
2023-04-04T19:22:24.751Z,100808.13
2023-04-04T19:24:51.241Z,100802.59
2023-04-04T19:27:17.837Z,100805.66
2023-04-04T19:29:44.593Z,100807.13
2023-04-04T19:32:16.547Z,100805.78
2023-04-04T19:34:43.703Z,100803.38
2023-04-04T19:37:14.322Z,100802.59
2023-04-04T19:39:42.232Z,100809.53
2023-04-04T19:42:09.233Z,100800.00
2023-04-04T19:44:36.543Z,100803.38
2023-04-04T19:47:02.967Z,100805.56
2023-04-04T19:49:30.674Z,100803.13
2023-04-04T19:51:58.676Z,100805.56
2023-04-04T19:54:29.980Z,100802.00
2023-04-04T19:57:07.613Z,100807.81
2023-04-04T19:59:54.080Z,100805.41
2023-04-04T20:02:38.794Z,100810.47
2023-04-04T20:05:32.178Z,100804.16
2023-04-04T20:08:00.442Z,100801.13
2023-04-04T20:10:38.240Z,100806.22
2023-04-04T20:13:08.073Z,100798.59
2023-04-04T20:16:01.091Z,100809.47
2023-04-04T20:18:30.346Z,100804.28
2023-04-04T20:21:06.689Z,100793.34
2023-04-04T20:23:53.452Z,100802.16
2023-04-04T20:26:35.768Z,100797.69
2023-04-04T20:29:04.721Z,100794.06
2023-04-04T20:31:34.230Z,100801.50
2023-04-04T20:34:00.702Z,100797.66
2023-04-04T20:36:39.362Z,100785.81
2023-04-04T20:39:07.879Z,100798.78
2023-04-04T20:41:34.593Z,100793.78
2023-04-04T20:44:01.230Z,100802.34
2023-04-04T20:46:27.810Z,100795.16
2023-04-04T20:48:56.419Z,100796.84
2023-04-04T20:51:27.313Z,100791.03
2023-04-04T20:53:56.100Z,100789.44
2023-04-04T20:56:41.231Z,100793.63
2023-04-04T20:59:27.001Z,100793.28
2023-04-04T21:01:54.123Z,100794.91
2023-04-04T21:04:25.876Z,100793.34
2023-04-04T21:06:53.043Z,100796.09
2023-04-04T21:09:19.574Z,100793.31
2023-04-04T21:11:46.196Z,100789.16
2023-04-04T21:14:24.161Z,100802.38
2023-04-04T21:16:51.169Z,100796.06
2023-04-04T21:19:19.132Z,100788.28
2023-04-04T21:21:46.688Z,100791.31
2023-04-04T21:24:13.896Z,100792.44
2023-04-04T21:26:41.658Z,100780.94
2023-04-04T21:29:17.752Z,100777.63
2023-04-04T21:31:44.269Z,100792.03
2023-04-04T21:34:16.449Z,100777.44
2023-04-04T21:36:44.591Z,100781.19
2023-04-04T21:39:13.256Z,100772.69
2023-04-04T21:41:40.341Z,100777.13
2023-04-04T21:44:08.827Z,100773.00
2023-04-04T21:46:37.328Z,100768.06
2023-04-04T21:49:04.955Z,100764.47
2023-04-04T21:51:32.033Z,100760.59
2023-04-04T21:53:59.613Z,100765.81
2023-04-04T21:56:31.527Z,100763.34
2023-04-04T21:59:02.886Z,100766.66
2023-04-04T22:01:30.598Z,100758.16
2023-04-04T22:03:58.736Z,100767.56
2023-04-04T22:06:26.396Z,100765.09
2023-04-04T22:08:54.222Z,100759.00
2023-04-04T22:11:20.897Z,100757.63
2023-04-04T22:13:48.378Z,100754.28
2023-04-04T22:16:16.895Z,100760.56
2023-04-04T22:18:46.915Z,100756.72
2023-04-04T22:21:15.033Z,100756.50
2023-04-04T22:23:42.371Z,100752.31
2023-04-04T22:26:14.393Z,100758.06
2023-04-04T22:28:42.221Z,100760.81
2023-04-04T22:31:09.249Z,100755.63
2023-04-04T22:33:35.706Z,100755.34
2023-04-04T22:36:02.490Z,100749.88
2023-04-04T22:38:29.612Z,100754.81
2023-04-04T22:40:57.443Z,100751.81
2023-04-04T22:43:25.636Z,100756.44
2023-04-04T22:45:53.083Z,100755.31
2023-04-04T22:48:22.901Z,100750.09
2023-04-04T22:50:55.968Z,100749.28
2023-04-04T22:53:25.875Z,100741.84
2023-04-04T22:55:58.153Z,100754.25
2023-04-04T22:58:24.715Z,100744.44
2023-04-04T23:00:51.179Z,100744.41
2023-04-04T23:03:17.623Z,100751.03
2023-04-04T23:05:44.072Z,100745.56
2023-04-04T23:08:10.805Z,100740.88
2023-04-04T23:10:37.307Z,100741.72
2023-04-04T23:13:06.573Z,100749.69
2023-04-04T23:15:38.283Z,100741.72
2023-04-04T23:18:07.103Z,100742.00
2023-04-04T23:20:34.130Z,100738.66
2023-04-04T23:23:00.972Z,100750.16
2023-04-04T23:25:27.956Z,100740.78
2023-04-04T23:27:54.523Z,100739.91
2023-04-04T23:30:23.380Z,100733.09
2023-04-04T23:32:50.797Z,100740.50
2023-04-04T23:35:17.297Z,100736.38
2023-04-04T23:37:44.072Z,100739.44
2023-04-04T23:40:11.364Z,100743.84
2023-04-04T23:42:38.011Z,100735.31
2023-04-04T23:45:05.105Z,100732.28
2023-04-04T23:47:33.854Z,100730.06
2023-04-04T23:50:02.005Z,100732.75
2023-04-04T23:52:30.519Z,100724.00
2023-04-04T23:54:57.359Z,100727.38
2023-04-04T23:57:24.252Z,100718.03
2023-04-04T23:59:52.423Z,100720.78
